sensor_id;sensor_type;location;lat;lon;timestamp;P1;durP1;ratioP1;P2;durP2;ratioP2
18239;SDS011;9244;50.828;4.718;2023-09-18T00:01:05;7.40;;;6.70;;
18239;SDS011;9244;50.828;4.718;2023-09-18T00:03:33;6.97;;;5.95;;
18239;SDS011;9244;50.828;4.718;2023-09-18T00:05:58;6.95;;;6.32;;
18239;SDS011;9244;50.828;4.718;2023-09-18T00:08:25;8.10;;;7.35;;
18239;SDS011;9244;50.828;4.718;2023-09-18T00:10:53;7.38;;;6.60;;
18239;SDS011;9244;50.828;4.718;2023-09-18T00:13:20;7.93;;;7.20;;
18239;SDS011;9244;50.828;4.718;2023-09-18T00:15:46;7.70;;;6.53;;
18239;SDS011;9244;50.828;4.718;2023-09-18T00:18:16;7.75;;;7.00;;
18239;SDS011;9244;50.828;4.718;2023-09-18T00:20:42;8.18;;;7.13;;
18239;SDS011;9244;50.828;4.718;2023-09-18T00:23:08;7.82;;;7.13;;
18239;SDS011;9244;50.828;4.718;2023-09-18T00:25:35;8.60;;;6.85;;
18239;SDS011;9244;50.828;4.718;2023-09-18T00:28:01;10.82;;;6.60;;
18239;SDS011;9244;50.828;4.718;2023-09-18T00:30:28;7.00;;;6.30;;
18239;SDS011;9244;50.828;4.718;2023-09-18T00:32:54;7.05;;;6.10;;
18239;SDS011;9244;50.828;4.718;2023-09-18T00:35:19;7.85;;;6.00;;
18239;SDS011;9244;50.828;4.718;2023-09-18T00:37:47;7.28;;;6.15;;
18239;SDS011;9244;50.828;4.718;2023-09-18T00:40:13;6.55;;;5.85;;
18239;SDS011;9244;50.828;4.718;2023-09-18T00:42:38;7.45;;;5.85;;
18239;SDS011;9244;50.828;4.718;2023-09-18T00:45:04;6.32;;;5.72;;
18239;SDS011;9244;50.828;4.718;2023-09-18T00:47:30;7.32;;;5.97;;
18239;SDS011;9244;50.828;4.718;2023-09-18T00:49:56;6.60;;;5.50;;
18239;SDS011;9244;50.828;4.718;2023-09-18T00:52:22;7.97;;;6.18;;
18239;SDS011;9244;50.828;4.718;2023-09-18T00:54:49;7.00;;;6.30;;
18239;SDS011;9244;50.828;4.718;2023-09-18T00:57:16;7.78;;;6.13;;
18239;SDS011;9244;50.828;4.718;2023-09-18T00:59:42;6.70;;;5.97;;
18239;SDS011;9244;50.828;4.718;2023-09-18T01:02:08;7.47;;;6.30;;
18239;SDS011;9244;50.828;4.718;2023-09-18T01:04:34;6.07;;;5.53;;
18239;SDS011;9244;50.828;4.718;2023-09-18T01:07:00;7.65;;;5.88;;
18239;SDS011;9244;50.828;4.718;2023-09-18T01:09:29;6.75;;;5.80;;
18239;SDS011;9244;50.828;4.718;2023-09-18T01:17:10;7.95;;;6.47;;
18239;SDS011;9244;50.828;4.718;2023-09-18T01:22:12;7.70;;;6.03;;
18239;SDS011;9244;50.828;4.718;2023-09-18T01:24:40;7.80;;;6.05;;
18239;SDS011;9244;50.828;4.718;2023-09-18T01:27:10;8.15;;;7.18;;
18239;SDS011;9244;50.828;4.718;2023-09-18T01:29:38;9.02;;;6.70;;
18239;SDS011;9244;50.828;4.718;2023-09-18T01:32:04;7.75;;;6.95;;
18239;SDS011;9244;50.828;4.718;2023-09-18T01:34:34;9.48;;;7.28;;
18239;SDS011;9244;50.828;4.718;2023-09-18T01:37:07;10.07;;;7.95;;
18239;SDS011;9244;50.828;4.718;2023-09-18T01:39:35;11.60;;;8.00;;
18239;SDS011;9244;50.828;4.718;2023-09-18T01:42:02;10.70;;;8.77;;
18239;SDS011;9244;50.828;4.718;2023-09-18T01:44:34;9.75;;;7.20;;
18239;SDS011;9244;50.828;4.718;2023-09-18T01:47:04;10.80;;;8.18;;
18239;SDS011;9244;50.828;4.718;2023-09-18T01:49:35;11.25;;;8.50;;
18239;SDS011;9244;50.828;4.718;2023-09-18T01:52:05;11.95;;;8.50;;
18239;SDS011;9244;50.828;4.718;2023-09-18T01:54:32;8.65;;;7.78;;
18239;SDS011;9244;50.828;4.718;2023-09-18T01:56:59;12.43;;;9.70;;
18239;SDS011;9244;50.828;4.718;2023-09-18T01:59:25;8.55;;;7.70;;
18239;SDS011;9244;50.828;4.718;2023-09-18T02:01:52;9.57;;;8.63;;
18239;SDS011;9244;50.828;4.718;2023-09-18T02:04:19;9.32;;;8.38;;
18239;SDS011;9244;50.828;4.718;2023-09-18T02:06:45;9.52;;;8.63;;
18239;SDS011;9244;50.828;4.718;2023-09-18T02:09:12;8.95;;;8.07;;
18239;SDS011;9244;50.828;4.718;2023-09-18T02:11:39;12.85;;;8.30;;
18239;SDS011;9244;50.828;4.718;2023-09-18T02:14:06;9.05;;;8.23;;
18239;SDS011;9244;50.828;4.718;2023-09-18T02:16:36;10.20;;;8.25;;
18239;SDS011;9244;50.828;4.718;2023-09-18T02:19:03;9.95;;;8.88;;
18239;SDS011;9244;50.828;4.718;2023-09-18T02:21:29;10.00;;;8.15;;
18239;SDS011;9244;50.828;4.718;2023-09-18T02:23:55;10.93;;;9.20;;
18239;SDS011;9244;50.828;4.718;2023-09-18T02:26:22;9.57;;;8.68;;
18239;SDS011;9244;50.828;4.718;2023-09-18T02:28:49;11.65;;;9.15;;
18239;SDS011;9244;50.828;4.718;2023-09-18T02:31:17;9.63;;;7.72;;
18239;SDS011;9244;50.828;4.718;2023-09-18T02:33:42;9.15;;;8.20;;
18239;SDS011;9244;50.828;4.718;2023-09-18T02:36:08;9.63;;;7.28;;
18239;SDS011;9244;50.828;4.718;2023-09-18T02:38:34;10.18;;;8.07;;
18239;SDS011;9244;50.828;4.718;2023-09-18T02:40:59;9.23;;;8.15;;
18239;SDS011;9244;50.828;4.718;2023-09-18T02:43:26;8.00;;;7.25;;
18239;SDS011;9244;50.828;4.718;2023-09-18T02:45:51;7.93;;;7.03;;
18239;SDS011;9244;50.828;4.718;2023-09-18T02:48:17;8.25;;;7.30;;
18239;SDS011;9244;50.828;4.718;2023-09-18T02:50:43;8.23;;;7.30;;
18239;SDS011;9244;50.828;4.718;2023-09-18T02:53:17;7.85;;;6.82;;
18239;SDS011;9244;50.828;4.718;2023-09-18T02:55:43;7.80;;;7.10;;
18239;SDS011;9244;50.828;4.718;2023-09-18T02:58:09;7.93;;;6.97;;
18239;SDS011;9244;50.828;4.718;2023-09-18T03:00:35;8.63;;;6.95;;
18239;SDS011;9244;50.828;4.718;2023-09-18T03:03:06;7.25;;;6.55;;
18239;SDS011;9244;50.828;4.718;2023-09-18T03:05:32;7.57;;;6.40;;
18239;SDS011;9244;50.828;4.718;2023-09-18T03:07:58;7.80;;;7.03;;
18239;SDS011;9244;50.828;4.718;2023-09-18T03:10:23;7.75;;;6.65;;
18239;SDS011;9244;50.828;4.718;2023-09-18T03:12:49;7.72;;;6.15;;
18239;SDS011;9244;50.828;4.718;2023-09-18T03:15:14;8.05;;;6.28;;
18239;SDS011;9244;50.828;4.718;2023-09-18T03:17:40;7.13;;;5.88;;
18239;SDS011;9244;50.828;4.718;2023-09-18T03:20:07;6.75;;;4.82;;
18239;SDS011;9244;50.828;4.718;2023-09-18T03:22:34;5.38;;;4.85;;
18239;SDS011;9244;50.828;4.718;2023-09-18T03:24:59;5.22;;;4.63;;
18239;SDS011;9244;50.828;4.718;2023-09-18T03:27:25;4.28;;;3.90;;
18239;SDS011;9244;50.828;4.718;2023-09-18T03:29:57;6.45;;;4.25;;
18239;SDS011;9244;50.828;4.718;2023-09-18T03:32:23;5.43;;;4.55;;
18239;SDS011;9244;50.828;4.718;2023-09-18T03:34:52;3.72;;;3.30;;
18239;SDS011;9244;50.828;4.718;2023-09-18T03:37:18;4.28;;;3.15;;
18239;SDS011;9244;50.828;4.718;2023-09-18T03:39:44;3.45;;;2.65;;
18239;SDS011;9244;50.828;4.718;2023-09-18T03:42:09;4.32;;;2.65;;
18239;SDS011;9244;50.828;4.718;2023-09-18T03:44:35;2.92;;;2.50;;
18239;SDS011;9244;50.828;4.718;2023-09-18T03:47:01;2.92;;;2.72;;
18239;SDS011;9244;50.828;4.718;2023-09-18T03:49:28;2.63;;;2.05;;
18239;SDS011;9244;50.828;4.718;2023-09-18T03:51:54;2.95;;;1.95;;
18239;SDS011;9244;50.828;4.718;2023-09-18T03:54:19;4.07;;;2.03;;
18239;SDS011;9244;50.828;4.718;2023-09-18T03:56:45;3.20;;;2.65;;
18239;SDS011;9244;50.828;4.718;2023-09-18T03:59:11;3.00;;;2.80;;
18239;SDS011;9244;50.828;4.718;2023-09-18T04:01:37;1.88;;;1.77;;
18239;SDS011;9244;50.828;4.718;2023-09-18T04:04:03;3.35;;;2.03;;
18239;SDS011;9244;50.828;4.718;2023-09-18T04:06:36;3.05;;;2.50;;
18239;SDS011;9244;50.828;4.718;2023-09-18T04:09:03;2.65;;;1.85;;
18239;SDS011;9244;50.828;4.718;2023-09-18T04:11:28;2.60;;;1.85;;
18239;SDS011;9244;50.828;4.718;2023-09-18T04:13:57;2.28;;;2.05;;
18239;SDS011;9244;50.828;4.718;2023-09-18T04:16:23;1.77;;;1.40;;
18239;SDS011;9244;50.828;4.718;2023-09-18T04:18:49;1.95;;;1.83;;
18239;SDS011;9244;50.828;4.718;2023-09-18T04:21:15;2.35;;;1.77;;
18239;SDS011;9244;50.828;4.718;2023-09-18T04:23:40;2.70;;;1.42;;
18239;SDS011;9244;50.828;4.718;2023-09-18T04:26:06;1.98;;;1.35;;
18239;SDS011;9244;50.828;4.718;2023-09-18T04:28:32;1.95;;;1.50;;
18239;SDS011;9244;50.828;4.718;2023-09-18T04:30:57;6.05;;;1.70;;
18239;SDS011;9244;50.828;4.718;2023-09-18T04:33:23;2.08;;;1.42;;
18239;SDS011;9244;50.828;4.718;2023-09-18T04:35:50;2.03;;;1.48;;
18239;SDS011;9244;50.828;4.718;2023-09-18T04:38:16;2.47;;;1.55;;
18239;SDS011;9244;50.828;4.718;2023-09-18T04:40:44;2.92;;;1.45;;
18239;SDS011;9244;50.828;4.718;2023-09-18T04:43:10;2.90;;;2.05;;
18239;SDS011;9244;50.828;4.718;2023-09-18T04:45:36;2.70;;;1.50;;
18239;SDS011;9244;50.828;4.718;2023-09-18T04:48:02;2.88;;;2.30;;
18239;SDS011;9244;50.828;4.718;2023-09-18T04:50:30;2.22;;;2.00;;
18239;SDS011;9244;50.828;4.718;2023-09-18T04:52:58;4.47;;;1.55;;
18239;SDS011;9244;50.828;4.718;2023-09-18T04:55:24;2.20;;;1.88;;
18239;SDS011;9244;50.828;4.718;2023-09-18T04:57:50;2.67;;;1.92;;
18239;SDS011;9244;50.828;4.718;2023-09-18T05:00:15;5.72;;;2.25;;
18239;SDS011;9244;50.828;4.718;2023-09-18T05:02:41;2.42;;;1.50;;
18239;SDS011;9244;50.828;4.718;2023-09-18T05:05:07;2.08;;;1.55;;
18239;SDS011;9244;50.828;4.718;2023-09-18T05:07:36;3.28;;;2.13;;
18239;SDS011;9244;50.828;4.718;2023-09-18T05:10:02;2.38;;;1.63;;
18239;SDS011;9244;50.828;4.718;2023-09-18T05:12:29;2.30;;;1.70;;
18239;SDS011;9244;50.828;4.718;2023-09-18T05:14:55;3.42;;;1.75;;
18239;SDS011;9244;50.828;4.718;2023-09-18T05:17:27;3.05;;;2.08;;
18239;SDS011;9244;50.828;4.718;2023-09-18T05:20:11;3.83;;;1.83;;
18239;SDS011;9244;50.828;4.718;2023-09-18T05:22:41;2.92;;;2.10;;
18239;SDS011;9244;50.828;4.718;2023-09-18T05:25:07;2.55;;;1.92;;
18239;SDS011;9244;50.828;4.718;2023-09-18T05:27:35;4.03;;;1.80;;
18239;SDS011;9244;50.828;4.718;2023-09-18T05:30:01;3.05;;;1.85;;
18239;SDS011;9244;50.828;4.718;2023-09-18T05:32:27;3.25;;;1.83;;
18239;SDS011;9244;50.828;4.718;2023-09-18T05:34:53;2.65;;;1.90;;
18239;SDS011;9244;50.828;4.718;2023-09-18T05:37:19;2.72;;;2.28;;
18239;SDS011;9244;50.828;4.718;2023-09-18T05:39:44;3.65;;;2.30;;
18239;SDS011;9244;50.828;4.718;2023-09-18T05:42:10;2.88;;;1.85;;
18239;SDS011;9244;50.828;4.718;2023-09-18T05:44:35;3.92;;;2.45;;
18239;SDS011;9244;50.828;4.718;2023-09-18T05:47:04;5.05;;;2.83;;
18239;SDS011;9244;50.828;4.718;2023-09-18T05:49:30;5.55;;;2.00;;
18239;SDS011;9244;50.828;4.718;2023-09-18T05:51:55;4.55;;;2.58;;
18239;SDS011;9244;50.828;4.718;2023-09-18T05:54:21;3.67;;;1.70;;
18239;SDS011;9244;50.828;4.718;2023-09-18T05:56:47;2.05;;;1.85;;
18239;SDS011;9244;50.828;4.718;2023-09-18T05:59:12;2.47;;;2.03;;
18239;SDS011;9244;50.828;4.718;2023-09-18T06:01:41;2.10;;;1.77;;
18239;SDS011;9244;50.828;4.718;2023-09-18T06:04:06;5.20;;;2.35;;
18239;SDS011;9244;50.828;4.718;2023-09-18T06:06:32;4.00;;;1.50;;
18239;SDS011;9244;50.828;4.718;2023-09-18T06:08:57;3.17;;;2.08;;
18239;SDS011;9244;50.828;4.718;2023-09-18T06:11:23;3.90;;;1.90;;
18239;SDS011;9244;50.828;4.718;2023-09-18T06:13:49;4.28;;;2.00;;
18239;SDS011;9244;50.828;4.718;2023-09-18T06:16:15;3.90;;;1.98;;
18239;SDS011;9244;50.828;4.718;2023-09-18T06:18:40;3.40;;;2.30;;
18239;SDS011;9244;50.828;4.718;2023-09-18T06:21:06;2.60;;;1.90;;
18239;SDS011;9244;50.828;4.718;2023-09-18T06:23:32;3.53;;;1.75;;
18239;SDS011;9244;50.828;4.718;2023-09-18T06:25:58;2.90;;;1.98;;
18239;SDS011;9244;50.828;4.718;2023-09-18T06:28:24;2.33;;;1.88;;
18239;SDS011;9244;50.828;4.718;2023-09-18T06:30:50;6.40;;;2.22;;
18239;SDS011;9244;50.828;4.718;2023-09-18T06:33:16;2.78;;;1.90;;
18239;SDS011;9244;50.828;4.718;2023-09-18T06:35:42;3.83;;;1.80;;
18239;SDS011;9244;50.828;4.718;2023-09-18T06:38:07;3.10;;;1.70;;
18239;SDS011;9244;50.828;4.718;2023-09-18T06:40:35;3.53;;;1.52;;
18239;SDS011;9244;50.828;4.718;2023-09-18T06:43:01;1.98;;;1.52;;
18239;SDS011;9244;50.828;4.718;2023-09-18T06:45:26;3.42;;;1.73;;
18239;SDS011;9244;50.828;4.718;2023-09-18T06:47:55;4.22;;;1.90;;
18239;SDS011;9244;50.828;4.718;2023-09-18T06:50:20;3.10;;;1.85;;
18239;SDS011;9244;50.828;4.718;2023-09-18T06:52:46;5.03;;;2.10;;
18239;SDS011;9244;50.828;4.718;2023-09-18T06:55:12;3.47;;;1.60;;
18239;SDS011;9244;50.828;4.718;2023-09-18T06:57:37;2.72;;;1.70;;
18239;SDS011;9244;50.828;4.718;2023-09-18T07:00:03;2.90;;;1.70;;
18239;SDS011;9244;50.828;4.718;2023-09-18T07:02:30;3.85;;;1.92;;
18239;SDS011;9244;50.828;4.718;2023-09-18T07:04:56;2.40;;;1.52;;
18239;SDS011;9244;50.828;4.718;2023-09-18T07:07:21;2.38;;;1.73;;
18239;SDS011;9244;50.828;4.718;2023-09-18T07:09:50;2.75;;;1.73;;
18239;SDS011;9244;50.828;4.718;2023-09-18T07:12:16;2.80;;;1.85;;
18239;SDS011;9244;50.828;4.718;2023-09-18T07:14:45;3.00;;;1.60;;
18239;SDS011;9244;50.828;4.718;2023-09-18T07:17:12;2.55;;;1.60;;
18239;SDS011;9244;50.828;4.718;2023-09-18T07:19:38;2.65;;;1.90;;
18239;SDS011;9244;50.828;4.718;2023-09-18T07:22:04;6.45;;;1.95;;
18239;SDS011;9244;50.828;4.718;2023-09-18T07:24:29;3.22;;;1.55;;
18239;SDS011;9244;50.828;4.718;2023-09-18T07:26:55;4.13;;;1.75;;
18239;SDS011;9244;50.828;4.718;2023-09-18T07:29:23;2.10;;;1.65;;
18239;SDS011;9244;50.828;4.718;2023-09-18T07:31:50;2.95;;;1.60;;
18239;SDS011;9244;50.828;4.718;2023-09-18T07:34:16;2.85;;;1.90;;
18239;SDS011;9244;50.828;4.718;2023-09-18T07:36:43;3.92;;;2.00;;
18239;SDS011;9244;50.828;4.718;2023-09-18T07:39:11;2.20;;;1.88;;
18239;SDS011;9244;50.828;4.718;2023-09-18T07:41:37;3.17;;;1.98;;
18239;SDS011;9244;50.828;4.718;2023-09-18T07:44:03;3.10;;;1.55;;
18239;SDS011;9244;50.828;4.718;2023-09-18T07:46:29;4.25;;;1.80;;
18239;SDS011;9244;50.828;4.718;2023-09-18T07:48:55;3.50;;;1.40;;
18239;SDS011;9244;50.828;4.718;2023-09-18T07:51:20;3.38;;;1.50;;
18239;SDS011;9244;50.828;4.718;2023-09-18T07:53:46;2.35;;;1.90;;
18239;SDS011;9244;50.828;4.718;2023-09-18T07:56:13;3.42;;;1.63;;
18239;SDS011;9244;50.828;4.718;2023-09-18T07:58:38;2.67;;;1.55;;
18239;SDS011;9244;50.828;4.718;2023-09-18T08:01:05;3.83;;;1.60;;
18239;SDS011;9244;50.828;4.718;2023-09-18T08:03:31;2.90;;;1.83;;
18239;SDS011;9244;50.828;4.718;2023-09-18T08:05:57;3.05;;;1.58;;
18239;SDS011;9244;50.828;4.718;2023-09-18T08:08:23;2.78;;;1.70;;
18239;SDS011;9244;50.828;4.718;2023-09-18T08:10:50;3.63;;;1.95;;
18239;SDS011;9244;50.828;4.718;2023-09-18T08:13:16;3.97;;;1.42;;
18239;SDS011;9244;50.828;4.718;2023-09-18T08:15:43;2.88;;;1.60;;
18239;SDS011;9244;50.828;4.718;2023-09-18T08:18:11;2.63;;;1.73;;
18239;SDS011;9244;50.828;4.718;2023-09-18T08:20:40;4.18;;;1.60;;
18239;SDS011;9244;50.828;4.718;2023-09-18T08:23:07;2.85;;;1.52;;
18239;SDS011;9244;50.828;4.718;2023-09-18T08:25:33;2.42;;;1.73;;
18239;SDS011;9244;50.828;4.718;2023-09-18T08:27:59;3.83;;;1.90;;
18239;SDS011;9244;50.828;4.718;2023-09-18T08:30:25;3.63;;;1.85;;
18239;SDS011;9244;50.828;4.718;2023-09-18T08:32:51;3.75;;;1.90;;
18239;SDS011;9244;50.828;4.718;2023-09-18T08:35:16;2.75;;;1.77;;
18239;SDS011;9244;50.828;4.718;2023-09-18T08:37:42;2.63;;;1.70;;
18239;SDS011;9244;50.828;4.718;2023-09-18T08:40:11;2.60;;;1.50;;
18239;SDS011;9244;50.828;4.718;2023-09-18T08:42:39;5.63;;;1.90;;
18239;SDS011;9244;50.828;4.718;2023-09-18T08:45:09;2.88;;;1.83;;
18239;SDS011;9244;50.828;4.718;2023-09-18T08:47:39;3.15;;;2.20;;
18239;SDS011;9244;50.828;4.718;2023-09-18T08:50:06;5.13;;;2.20;;
18239;SDS011;9244;50.828;4.718;2023-09-18T08:52:35;2.65;;;1.98;;
18239;SDS011;9244;50.828;4.718;2023-09-18T08:55:02;4.93;;;2.70;;
18239;SDS011;9244;50.828;4.718;2023-09-18T08:57:29;3.30;;;2.10;;
18239;SDS011;9244;50.828;4.718;2023-09-18T08:59:55;3.25;;;1.92;;
18239;SDS011;9244;50.828;4.718;2023-09-18T09:02:23;5.47;;;2.20;;
18239;SDS011;9244;50.828;4.718;2023-09-18T09:04:49;2.67;;;1.85;;
18239;SDS011;9244;50.828;4.718;2023-09-18T09:07:15;3.13;;;2.33;;
18239;SDS011;9244;50.828;4.718;2023-09-18T09:09:41;2.15;;;1.67;;
18239;SDS011;9244;50.828;4.718;2023-09-18T09:12:07;3.22;;;2.28;;
18239;SDS011;9244;50.828;4.718;2023-09-18T09:14:33;3.83;;;2.63;;
18239;SDS011;9244;50.828;4.718;2023-09-18T09:16:59;5.80;;;2.78;;
18239;SDS011;9244;50.828;4.718;2023-09-18T09:19:32;2.75;;;2.30;;
18239;SDS011;9244;50.828;4.718;2023-09-18T09:22:02;3.53;;;2.05;;
18239;SDS011;9244;50.828;4.718;2023-09-18T09:24:37;5.50;;;2.25;;
18239;SDS011;9244;50.828;4.718;2023-09-18T09:27:08;2.10;;;2.00;;
18239;SDS011;9244;50.828;4.718;2023-09-18T09:29:35;5.13;;;2.55;;
18239;SDS011;9244;50.828;4.718;2023-09-18T09:32:21;4.25;;;2.45;;
18239;SDS011;9244;50.828;4.718;2023-09-18T09:34:46;3.45;;;2.08;;
18239;SDS011;9244;50.828;4.718;2023-09-18T09:37:12;4.35;;;2.53;;
18239;SDS011;9244;50.828;4.718;2023-09-18T09:39:48;3.38;;;2.40;;
18239;SDS011;9244;50.828;4.718;2023-09-18T09:42:18;4.28;;;2.63;;
18239;SDS011;9244;50.828;4.718;2023-09-18T09:45:03;3.92;;;2.10;;
18239;SDS011;9244;50.828;4.718;2023-09-18T09:47:37;5.22;;;2.55;;
18239;SDS011;9244;50.828;4.718;2023-09-18T09:50:05;4.07;;;2.38;;
18239;SDS011;9244;50.828;4.718;2023-09-18T09:52:35;5.15;;;2.85;;
18239;SDS011;9244;50.828;4.718;2023-09-18T09:55:02;3.60;;;2.40;;
18239;SDS011;9244;50.828;4.718;2023-09-18T09:57:49;4.75;;;3.00;;
18239;SDS011;9244;50.828;4.718;2023-09-18T10:00:22;4.35;;;1.88;;
18239;SDS011;9244;50.828;4.718;2023-09-18T10:03:01;3.40;;;2.13;;
18239;SDS011;9244;50.828;4.718;2023-09-18T10:05:33;5.90;;;2.30;;
18239;SDS011;9244;50.828;4.718;2023-09-18T10:08:07;4.47;;;2.65;;
18239;SDS011;9244;50.828;4.718;2023-09-18T10:10:40;4.63;;;2.55;;
18239;SDS011;9244;50.828;4.718;2023-09-18T10:13:14;4.00;;;2.70;;
18239;SDS011;9244;50.828;4.718;2023-09-18T10:15:41;4.15;;;2.50;;
18239;SDS011;9244;50.828;4.718;2023-09-18T10:18:34;2.40;;;2.08;;
18239;SDS011;9244;50.828;4.718;2023-09-18T10:21:14;2.70;;;2.15;;
18239;SDS011;9244;50.828;4.718;2023-09-18T10:26:30;3.20;;;2.10;;
18239;SDS011;9244;50.828;4.718;2023-09-18T10:29:03;1.80;;;1.33;;
18239;SDS011;9244;50.828;4.718;2023-09-18T10:31:33;3.90;;;2.25;;
18239;SDS011;9244;50.828;4.718;2023-09-18T10:34:02;3.22;;;2.20;;
18239;SDS011;9244;50.828;4.718;2023-09-18T10:36:29;4.30;;;2.10;;
18239;SDS011;9244;50.828;4.718;2023-09-18T10:38:56;3.70;;;2.28;;
18239;SDS011;9244;50.828;4.718;2023-09-18T10:41:25;5.20;;;2.17;;
18239;SDS011;9244;50.828;4.718;2023-09-18T10:43:55;3.33;;;2.30;;
18239;SDS011;9244;50.828;4.718;2023-09-18T10:46:24;3.42;;;2.30;;
18239;SDS011;9244;50.828;4.718;2023-09-18T10:48:51;3.38;;;2.22;;
18239;SDS011;9244;50.828;4.718;2023-09-18T10:51:19;4.75;;;2.20;;
18239;SDS011;9244;50.828;4.718;2023-09-18T10:53:47;5.95;;;2.67;;
18239;SDS011;9244;50.828;4.718;2023-09-18T10:56:16;4.05;;;2.35;;
18239;SDS011;9244;50.828;4.718;2023-09-18T10:58:42;3.42;;;2.53;;
18239;SDS011;9244;50.828;4.718;2023-09-18T11:01:10;3.42;;;2.45;;
18239;SDS011;9244;50.828;4.718;2023-09-18T11:03:37;4.13;;;2.35;;
18239;SDS011;9244;50.828;4.718;2023-09-18T11:06:03;2.58;;;1.90;;
18239;SDS011;9244;50.828;4.718;2023-09-18T11:08:43;5.20;;;2.40;;
18239;SDS011;9244;50.828;4.718;2023-09-18T11:11:11;3.10;;;2.45;;
18239;SDS011;9244;50.828;4.718;2023-09-18T11:13:43;5.38;;;3.03;;
18239;SDS011;9244;50.828;4.718;2023-09-18T11:18:40;3.97;;;2.67;;
18239;SDS011;9244;50.828;4.718;2023-09-18T11:21:10;2.83;;;2.30;;
18239;SDS011;9244;50.828;4.718;2023-09-18T11:23:37;4.30;;;2.60;;
18239;SDS011;9244;50.828;4.718;2023-09-18T11:26:10;3.83;;;2.65;;
18239;SDS011;9244;50.828;4.718;2023-09-18T11:28:37;3.00;;;2.30;;
18239;SDS011;9244;50.828;4.718;2023-09-18T11:31:03;3.15;;;2.25;;
18239;SDS011;9244;50.828;4.718;2023-09-18T11:33:47;3.65;;;2.45;;
18239;SDS011;9244;50.828;4.718;2023-09-18T11:36:14;5.32;;;2.88;;
18239;SDS011;9244;50.828;4.718;2023-09-18T11:38:57;4.65;;;2.85;;
18239;SDS011;9244;50.828;4.718;2023-09-18T11:41:29;3.38;;;2.70;;
18239;SDS011;9244;50.828;4.718;2023-09-18T11:46:47;3.20;;;2.30;;
18239;SDS011;9244;50.828;4.718;2023-09-18T11:49:19;3.63;;;2.50;;
18239;SDS011;9244;50.828;4.718;2023-09-18T11:51:52;3.72;;;2.70;;
18239;SDS011;9244;50.828;4.718;2023-09-18T11:54:19;6.15;;;2.28;;
18239;SDS011;9244;50.828;4.718;2023-09-18T11:56:46;3.80;;;2.17;;
18239;SDS011;9244;50.828;4.718;2023-09-18T11:59:12;3.72;;;2.10;;
18239;SDS011;9244;50.828;4.718;2023-09-18T12:01:38;2.60;;;2.05;;
18239;SDS011;9244;50.828;4.718;2023-09-18T12:04:04;5.57;;;2.35;;
18239;SDS011;9244;50.828;4.718;2023-09-18T12:06:34;2.28;;;1.58;;
18239;SDS011;9244;50.828;4.718;2023-09-18T12:09:01;2.65;;;1.70;;
18239;SDS011;9244;50.828;4.718;2023-09-18T12:11:28;3.00;;;1.90;;
18239;SDS011;9244;50.828;4.718;2023-09-18T12:13:55;3.03;;;1.80;;
18239;SDS011;9244;50.828;4.718;2023-09-18T12:16:20;1.75;;;1.50;;
18239;SDS011;9244;50.828;4.718;2023-09-18T12:18:49;4.22;;;1.75;;
18239;SDS011;9244;50.828;4.718;2023-09-18T12:21:16;2.20;;;2.00;;
18239;SDS011;9244;50.828;4.718;2023-09-18T12:23:43;2.38;;;1.55;;
18239;SDS011;9244;50.828;4.718;2023-09-18T12:26:11;1.65;;;1.40;;
18239;SDS011;9244;50.828;4.718;2023-09-18T12:28:41;5.15;;;2.75;;
18239;SDS011;9244;50.828;4.718;2023-09-18T12:31:14;3.00;;;1.90;;
18239;SDS011;9244;50.828;4.718;2023-09-18T12:33:41;2.10;;;1.60;;
18239;SDS011;9244;50.828;4.718;2023-09-18T12:36:18;2.10;;;1.67;;
18239;SDS011;9244;50.828;4.718;2023-09-18T12:38:54;2.53;;;1.75;;
18239;SDS011;9244;50.828;4.718;2023-09-18T12:41:21;2.72;;;1.75;;
18239;SDS011;9244;50.828;4.718;2023-09-18T12:43:49;3.67;;;1.52;;
18239;SDS011;9244;50.828;4.718;2023-09-18T12:46:15;3.30;;;1.70;;
18239;SDS011;9244;50.828;4.718;2023-09-18T12:48:41;2.40;;;1.77;;
18239;SDS011;9244;50.828;4.718;2023-09-18T12:51:11;1.98;;;1.67;;
18239;SDS011;9244;50.828;4.718;2023-09-18T12:53:37;3.03;;;2.00;;
18239;SDS011;9244;50.828;4.718;2023-09-18T12:56:07;2.85;;;1.40;;
18239;SDS011;9244;50.828;4.718;2023-09-18T12:58:34;2.65;;;1.60;;
18239;SDS011;9244;50.828;4.718;2023-09-18T13:01:07;2.63;;;1.50;;
18239;SDS011;9244;50.828;4.718;2023-09-18T13:03:35;2.22;;;1.50;;
18239;SDS011;9244;50.828;4.718;2023-09-18T13:06:11;5.32;;;1.85;;
18239;SDS011;9244;50.828;4.718;2023-09-18T13:08:42;2.35;;;1.55;;
18239;SDS011;9244;50.828;4.718;2023-09-18T13:11:08;1.83;;;1.52;;
18239;SDS011;9244;50.828;4.718;2023-09-18T13:13:36;2.00;;;1.80;;
18239;SDS011;9244;50.828;4.718;2023-09-18T13:16:05;2.20;;;1.20;;
18239;SDS011;9244;50.828;4.718;2023-09-18T13:18:33;2.20;;;1.35;;
18239;SDS011;9244;50.828;4.718;2023-09-18T13:20:59;1.38;;;1.20;;
18239;SDS011;9244;50.828;4.718;2023-09-18T13:23:34;2.28;;;1.67;;
18239;SDS011;9244;50.828;4.718;2023-09-18T13:26:01;1.95;;;1.50;;
18239;SDS011;9244;50.828;4.718;2023-09-18T13:28:28;2.45;;;1.13;;
18239;SDS011;9244;50.828;4.718;2023-09-18T13:30:56;2.45;;;1.50;;
18239;SDS011;9244;50.828;4.718;2023-09-18T13:33:22;3.00;;;1.50;;
18239;SDS011;9244;50.828;4.718;2023-09-18T13:35:48;3.20;;;1.65;;
18239;SDS011;9244;50.828;4.718;2023-09-18T13:38:14;2.63;;;1.67;;
18239;SDS011;9244;50.828;4.718;2023-09-18T13:40:41;3.08;;;1.60;;
18239;SDS011;9244;50.828;4.718;2023-09-18T13:43:08;2.78;;;1.70;;
18239;SDS011;9244;50.828;4.718;2023-09-18T13:45:34;2.35;;;1.52;;
18239;SDS011;9244;50.828;4.718;2023-09-18T13:48:01;3.72;;;1.60;;
18239;SDS011;9244;50.828;4.718;2023-09-18T13:50:33;1.42;;;1.33;;
18239;SDS011;9244;50.828;4.718;2023-09-18T13:53:00;1.63;;;1.30;;
18239;SDS011;9244;50.828;4.718;2023-09-18T13:55:26;1.60;;;1.35;;
18239;SDS011;9244;50.828;4.718;2023-09-18T13:57:52;2.00;;;1.10;;
18239;SDS011;9244;50.828;4.718;2023-09-18T14:00:17;2.08;;;1.48;;
18239;SDS011;9244;50.828;4.718;2023-09-18T14:02:43;1.48;;;1.17;;
18239;SDS011;9244;50.828;4.718;2023-09-18T14:05:09;3.00;;;1.42;;
18239;SDS011;9244;50.828;4.718;2023-09-18T14:07:36;1.88;;;1.20;;
18239;SDS011;9244;50.828;4.718;2023-09-18T14:10:08;1.63;;;1.02;;
18239;SDS011;9244;50.828;4.718;2023-09-18T14:12:35;1.20;;;1.10;;
18239;SDS011;9244;50.828;4.718;2023-09-18T14:15:03;2.22;;;1.40;;
18239;SDS011;9244;50.828;4.718;2023-09-18T14:17:30;2.95;;;1.60;;
18239;SDS011;9244;50.828;4.718;2023-09-18T14:19:56;2.40;;;1.80;;
18239;SDS011;9244;50.828;4.718;2023-09-18T14:22:21;2.35;;;1.65;;
18239;SDS011;9244;50.828;4.718;2023-09-18T14:24:47;1.80;;;1.35;;
18239;SDS011;9244;50.828;4.718;2023-09-18T14:27:13;1.80;;;1.35;;
18239;SDS011;9244;50.828;4.718;2023-09-18T14:29:39;1.92;;;0.98;;
18239;SDS011;9244;50.828;4.718;2023-09-18T14:32:05;2.53;;;1.48;;
18239;SDS011;9244;50.828;4.718;2023-09-18T14:34:33;5.38;;;1.55;;
18239;SDS011;9244;50.828;4.718;2023-09-18T14:37:00;2.20;;;1.23;;
18239;SDS011;9244;50.828;4.718;2023-09-18T14:39:29;1.63;;;1.30;;
18239;SDS011;9244;50.828;4.718;2023-09-18T14:41:57;2.55;;;1.15;;
18239;SDS011;9244;50.828;4.718;2023-09-18T14:44:24;1.40;;;0.90;;
18239;SDS011;9244;50.828;4.718;2023-09-18T14:46:50;4.13;;;1.45;;
18239;SDS011;9244;50.828;4.718;2023-09-18T14:49:17;3.97;;;1.45;;
18239;SDS011;9244;50.828;4.718;2023-09-18T14:51:43;2.97;;;1.30;;
18239;SDS011;9244;50.828;4.718;2023-09-18T14:54:09;4.47;;;1.40;;
18239;SDS011;9244;50.828;4.718;2023-09-18T14:56:35;2.58;;;1.65;;
18239;SDS011;9244;50.828;4.718;2023-09-18T14:59:02;1.27;;;1.10;;
18239;SDS011;9244;50.828;4.718;2023-09-18T15:01:28;5.10;;;1.85;;
18239;SDS011;9244;50.828;4.718;2023-09-18T15:03:54;2.13;;;1.40;;
18239;SDS011;9244;50.828;4.718;2023-09-18T15:06:20;5.97;;;1.40;;
18239;SDS011;9244;50.828;4.718;2023-09-18T15:08:45;2.63;;;1.52;;
18239;SDS011;9244;50.828;4.718;2023-09-18T15:11:11;1.95;;;1.00;;
18239;SDS011;9244;50.828;4.718;2023-09-18T15:13:37;2.35;;;1.77;;
18239;SDS011;9244;50.828;4.718;2023-09-18T15:16:03;1.42;;;1.27;;
18239;SDS011;9244;50.828;4.718;2023-09-18T15:18:30;2.55;;;1.50;;